createdAt,value
2022-12-08T00:01:19.454Z,21.80
2022-12-08T00:03:46.383Z,18.90
2022-12-08T00:06:44.279Z,20.63
2022-12-08T00:09:39.180Z,16.35
2022-12-08T00:12:08.501Z,20.45
2022-12-08T00:14:36.971Z,20.52
2022-12-08T00:17:04.173Z,18.88
2022-12-08T00:19:31.004Z,19.33
2022-12-08T00:21:57.762Z,18.08
2022-12-08T00:24:25.526Z,20.95
2022-12-08T00:26:52.283Z,19.20
2022-12-08T00:29:18.979Z,21.65
2022-12-08T00:31:45.676Z,19.42
2022-12-08T00:34:14.358Z,20.95
2022-12-08T00:36:41.424Z,25.30
2022-12-08T00:39:08.030Z,20.25
2022-12-08T00:41:54.535Z,18.45
2022-12-08T00:44:21.219Z,21.15
2022-12-08T00:46:48.117Z,23.10
2022-12-08T00:49:15.112Z,19.60
2022-12-08T00:51:41.768Z,22.02
2022-12-08T00:54:08.454Z,16.13
2022-12-08T00:56:35.149Z,22.20
2022-12-08T00:59:01.851Z,20.90
2022-12-08T01:01:28.537Z,18.27
2022-12-08T01:03:55.230Z,20.77
2022-12-08T01:06:21.899Z,20.83
2022-12-08T01:08:48.492Z,19.60
2022-12-08T01:11:16.811Z,18.25
2022-12-08T01:13:44.838Z,19.17
2022-12-08T01:16:19.878Z,17.58
2022-12-08T01:18:46.533Z,21.23
2022-12-08T01:21:13.175Z,16.88
2022-12-08T01:23:39.791Z,20.63
2022-12-08T01:26:07.616Z,18.83
2022-12-08T01:28:34.242Z,22.17
2022-12-08T01:31:01.198Z,18.92
2022-12-08T01:33:28.055Z,21.95
2022-12-08T01:35:55.413Z,18.67
2022-12-08T01:38:22.691Z,19.63
2022-12-08T01:40:49.481Z,20.65
2022-12-08T01:43:17.177Z,19.92
2022-12-08T01:45:43.846Z,20.77
2022-12-08T01:48:14.191Z,21.63
2022-12-08T01:50:40.869Z,21.08
2022-12-08T01:53:17.749Z,21.63
2022-12-08T01:55:48.546Z,20.90
2022-12-08T01:58:20.299Z,21.63
2022-12-08T02:00:47.153Z,17.50
2022-12-08T02:03:16.341Z,23.27
2022-12-08T02:05:42.939Z,21.70
2022-12-08T02:08:11.955Z,24.67
2022-12-08T02:10:40.057Z,18.48
2022-12-08T02:13:08.578Z,19.25
2022-12-08T02:16:06.327Z,21.23
2022-12-08T02:19:08.017Z,18.45
2022-12-08T02:21:47.511Z,21.88
2022-12-08T02:24:38.391Z,19.95
2022-12-08T02:27:28.394Z,23.67
2022-12-08T02:30:07.500Z,18.75
2022-12-08T02:33:14.074Z,20.13
2022-12-08T02:36:13.629Z,20.50
2022-12-08T02:41:36.412Z,20.52
2022-12-08T02:44:28.072Z,20.10
2022-12-08T02:46:58.279Z,19.30
2022-12-08T02:49:31.320Z,18.52
2022-12-08T02:52:21.546Z,23.35
2022-12-08T02:54:51.512Z,21.10
2022-12-08T02:57:45.192Z,19.58
2022-12-08T03:00:14.184Z,23.05
2022-12-08T03:02:54.490Z,20.50
2022-12-08T03:05:59.224Z,23.63
2022-12-08T03:08:49.778Z,23.88
2022-12-08T03:11:21.266Z,23.95
2022-12-08T03:13:51.074Z,22.65
2022-12-08T03:16:22.481Z,22.95
2022-12-08T03:18:51.674Z,23.90
2022-12-08T03:21:18.422Z,25.50
2022-12-08T03:23:45.763Z,24.00
2022-12-08T03:26:15.291Z,22.63
2022-12-08T03:28:41.979Z,20.77
2022-12-08T03:31:10.335Z,26.30
2022-12-08T03:33:38.019Z,23.70
2022-12-08T03:36:05.182Z,22.92
2022-12-08T03:38:47.033Z,24.52
2022-12-08T03:41:20.726Z,25.27
2022-12-08T03:43:50.404Z,23.92
2022-12-08T03:46:17.335Z,23.83
2022-12-08T03:48:44.134Z,24.63
2022-12-08T03:51:10.770Z,20.65
2022-12-08T03:53:37.506Z,26.90
2022-12-08T03:56:06.059Z,22.13
2022-12-08T03:58:37.169Z,26.80
2022-12-08T04:01:04.221Z,22.60
2022-12-08T04:03:30.871Z,24.92
2022-12-08T04:05:57.546Z,24.15
2022-12-08T04:08:24.188Z,24.92
2022-12-08T04:10:50.799Z,28.58
2022-12-08T04:13:17.434Z,25.58
2022-12-08T04:15:46.459Z,26.58
2022-12-08T04:18:13.590Z,24.08
2022-12-08T04:20:41.371Z,20.77
2022-12-08T04:23:08.274Z,21.67
2022-12-08T04:25:35.457Z,23.45
2022-12-08T04:28:02.264Z,25.75
2022-12-08T04:30:28.872Z,23.38
2022-12-08T04:32:55.741Z,22.27
2022-12-08T04:35:22.633Z,22.67
2022-12-08T04:37:49.327Z,23.58
2022-12-08T04:40:16.122Z,18.83
2022-12-08T04:42:42.789Z,21.05
2022-12-08T04:45:09.797Z,19.33
2022-12-08T04:47:36.460Z,21.88
2022-12-08T04:50:04.262Z,24.95
2022-12-08T04:52:31.062Z,24.58
2022-12-08T04:54:57.673Z,22.75
2022-12-08T04:57:24.274Z,22.63
2022-12-08T04:59:50.878Z,23.00
2022-12-08T05:02:17.534Z,25.35
2022-12-08T05:04:44.218Z,23.35
2022-12-08T05:07:10.774Z,27.88
2022-12-08T05:09:37.393Z,22.23
2022-12-08T05:12:04.351Z,24.48
2022-12-08T05:14:31.052Z,23.38
2022-12-08T05:16:57.654Z,23.00
2022-12-08T05:19:24.457Z,23.48
2022-12-08T05:21:51.071Z,21.83
2022-12-08T05:24:17.655Z,26.58
2022-12-08T05:26:44.284Z,23.70
2022-12-08T05:29:10.867Z,26.02
2022-12-08T05:31:37.511Z,23.05
2022-12-08T05:34:04.156Z,26.55
2022-12-08T05:36:30.761Z,28.05
2022-12-08T05:38:58.023Z,24.67
2022-12-08T05:41:24.760Z,21.77
2022-12-08T05:43:51.345Z,21.52
2022-12-08T05:46:18.174Z,24.05
2022-12-08T05:48:44.855Z,21.77
2022-12-08T05:51:18.323Z,17.40
2022-12-08T05:53:45.078Z,21.17
2022-12-08T05:56:12.369Z,20.52
2022-12-08T05:58:39.134Z,23.20
2022-12-08T06:01:05.728Z,26.77
2022-12-08T06:03:32.459Z,21.25
2022-12-08T06:05:59.128Z,22.15
2022-12-08T06:08:25.935Z,19.48
2022-12-08T06:10:52.625Z,19.45
2022-12-08T06:13:19.221Z,21.60
2022-12-08T06:15:45.818Z,17.50
2022-12-08T06:18:12.462Z,19.35
2022-12-08T06:20:39.092Z,22.02
2022-12-08T06:23:05.681Z,23.10
2022-12-08T06:25:32.313Z,20.45
2022-12-08T06:27:58.919Z,18.67
2022-12-08T06:30:26.027Z,16.98
2022-12-08T06:32:52.643Z,21.20
2022-12-08T06:35:19.261Z,21.20
2022-12-08T06:37:45.891Z,19.45
2022-12-08T06:40:12.877Z,22.85
2022-12-08T06:42:47.232Z,20.15
2022-12-08T06:45:15.076Z,14.70
2022-12-08T06:47:41.750Z,19.00
2022-12-08T06:50:09.250Z,20.23
2022-12-08T06:52:43.215Z,21.80
2022-12-08T06:55:35.393Z,18.17
2022-12-08T06:58:00.729Z,22.13
2022-12-08T07:00:27.346Z,24.17
2022-12-08T07:02:54.108Z,26.55
2022-12-08T07:05:21.004Z,22.17
2022-12-08T07:07:47.627Z,24.95
2022-12-08T07:10:14.255Z,26.70
2022-12-08T07:12:40.785Z,28.77
2022-12-08T07:15:08.207Z,21.08
2022-12-08T07:17:34.899Z,23.02
2022-12-08T07:20:02.045Z,27.17
2022-12-08T07:22:28.935Z,28.70
2022-12-08T07:24:55.742Z,28.25
2022-12-08T07:27:22.458Z,26.05
2022-12-08T07:29:49.080Z,21.02
2022-12-08T07:32:15.671Z,24.98
2022-12-08T07:34:42.273Z,18.63
2022-12-08T07:37:08.862Z,18.02
2022-12-08T07:39:35.455Z,19.90
2022-12-08T07:42:02.196Z,19.92
2022-12-08T07:44:28.762Z,22.83
2022-12-08T07:46:55.414Z,21.67
2022-12-08T07:49:22.113Z,17.40
2022-12-08T07:51:49.089Z,17.73
2022-12-08T07:54:15.695Z,15.05
2022-12-08T07:56:42.275Z,18.40
2022-12-08T07:59:08.860Z,16.35
2022-12-08T08:01:36.048Z,29.83
2022-12-08T08:04:05.232Z,18.98
2022-12-08T08:06:32.636Z,16.17
2022-12-08T08:09:00.554Z,18.42
2022-12-08T08:11:27.166Z,19.30
2022-12-08T08:13:53.946Z,17.33
2022-12-08T08:16:20.775Z,17.15
2022-12-08T08:18:48.998Z,19.08
2022-12-08T08:21:43.965Z,21.08
2022-12-08T08:24:02.313Z,21.00
2022-12-08T08:26:28.884Z,20.17
2022-12-08T08:28:55.899Z,20.13
2022-12-08T08:31:26.936Z,15.15
2022-12-08T08:33:53.995Z,24.27
2022-12-08T08:36:22.028Z,19.00
2022-12-08T08:38:48.729Z,19.63
2022-12-08T08:41:15.454Z,15.70
2022-12-08T08:43:42.249Z,16.65
2022-12-08T08:46:09.593Z,19.63
2022-12-08T08:48:36.500Z,17.95
2022-12-08T08:51:11.478Z,20.80
2022-12-08T08:53:38.306Z,18.63
2022-12-08T08:56:13.349Z,28.55
2022-12-08T08:58:40.376Z,18.77
2022-12-08T09:01:06.964Z,18.25
2022-12-08T09:03:33.707Z,26.73
2022-12-08T09:06:00.487Z,21.85
2022-12-08T09:08:27.394Z,22.67
2022-12-08T09:10:54.397Z,23.77
2022-12-08T09:13:22.425Z,20.88
2022-12-08T09:15:49.162Z,22.17
2022-12-08T09:18:15.811Z,20.45
2022-12-08T09:20:42.465Z,22.23
2022-12-08T09:23:09.110Z,22.05
2022-12-08T09:25:35.805Z,21.88
2022-12-08T09:28:02.493Z,28.58
2022-12-08T09:30:29.387Z,22.95
2022-12-08T09:32:56.101Z,22.90
2022-12-08T09:35:22.816Z,28.42
2022-12-08T09:37:49.497Z,29.08
2022-12-08T09:40:17.588Z,30.92
2022-12-08T09:42:55.819Z,25.60
2022-12-08T09:45:22.540Z,27.30
2022-12-08T09:48:11.209Z,19.52
2022-12-08T09:50:39.699Z,26.42
2022-12-08T09:53:12.403Z,24.67
2022-12-08T09:58:24.254Z,24.58
2022-12-08T10:00:50.905Z,22.98
2022-12-08T10:03:18.800Z,24.95
2022-12-08T10:05:49.900Z,23.48
2022-12-08T10:08:21.216Z,26.77
2022-12-08T10:10:54.255Z,25.10
2022-12-08T10:13:57.035Z,26.13
2022-12-08T10:16:34.796Z,23.85
2022-12-08T10:19:11.429Z,30.10
2022-12-08T10:21:38.118Z,28.52
2022-12-08T10:24:10.411Z,29.02
2022-12-08T10:26:37.115Z,25.98
2022-12-08T10:29:03.845Z,28.13
2022-12-08T10:31:30.925Z,28.10
2022-12-08T10:34:01.914Z,26.73
2022-12-08T10:36:53.854Z,29.27
2022-12-08T10:39:43.607Z,35.10
2022-12-08T10:42:19.628Z,24.92
2022-12-08T10:47:27.584Z,25.48
2022-12-08T10:50:22.425Z,28.63
2022-12-08T10:52:57.944Z,31.45
2022-12-08T10:55:24.571Z,26.70
2022-12-08T10:57:51.191Z,34.95
2022-12-08T11:00:25.991Z,29.13
2022-12-08T11:03:00.658Z,34.00
2022-12-08T11:05:29.615Z,30.25
2022-12-08T11:07:56.326Z,22.05
2022-12-08T11:10:32.178Z,26.55
2022-12-08T11:13:01.425Z,34.42
2022-12-08T11:15:31.987Z,27.88
2022-12-08T11:18:00.813Z,31.02
2022-12-08T11:20:28.974Z,29.60
2022-12-08T11:22:55.994Z,31.02
2022-12-08T11:25:24.785Z,25.17
2022-12-08T11:27:56.642Z,31.95
2022-12-08T11:30:25.242Z,23.63
2022-12-08T11:33:01.414Z,25.83
2022-12-08T11:35:31.757Z,24.05
2022-12-08T11:38:20.164Z,26.75
2022-12-08T11:40:50.333Z,26.90
2022-12-08T11:43:21.208Z,28.33
2022-12-08T11:45:50.527Z,28.58
2022-12-08T11:48:19.331Z,32.88
2022-12-08T11:50:50.577Z,27.33
2022-12-08T11:53:38.721Z,25.42
2022-12-08T11:56:23.662Z,21.00
2022-12-08T11:58:55.468Z,25.88
2022-12-08T12:01:24.277Z,23.67
2022-12-08T12:04:14.310Z,25.13
2022-12-08T12:09:42.817Z,25.55
2022-12-08T12:12:49.824Z,26.98
2022-12-08T12:15:44.100Z,27.42
2022-12-08T12:18:40.170Z,25.48
2022-12-08T12:21:12.563Z,28.80
2022-12-08T12:23:42.055Z,25.80
2022-12-08T12:26:18.908Z,22.88
2022-12-08T12:28:49.901Z,32.25
2022-12-08T12:31:17.220Z,27.65
2022-12-08T12:33:44.568Z,27.58
2022-12-08T12:36:11.177Z,25.67
2022-12-08T12:39:04.037Z,30.98
2022-12-08T12:57:37.216Z,27.27
2022-12-08T13:02:49.047Z,20.92
2022-12-08T13:05:19.978Z,20.75
2022-12-08T13:07:52.964Z,22.60
2022-12-08T13:10:37.036Z,21.98
2022-12-08T13:18:28.202Z,21.83
2022-12-08T13:21:04.952Z,20.92
2022-12-08T13:23:46.642Z,25.02
2022-12-08T13:29:04.156Z,22.92
2022-12-08T13:31:52.660Z,24.40
2022-12-08T13:34:41.647Z,27.52
2022-12-08T13:37:20.699Z,25.30
2022-12-08T13:39:51.138Z,28.30
2022-12-08T13:42:58.753Z,26.38
2022-12-08T13:46:10.874Z,21.63
2022-12-08T13:57:27.012Z,21.48
2022-12-08T13:59:53.657Z,36.30
2022-12-08T14:02:30.340Z,23.40
2022-12-08T14:07:47.772Z,27.90
2022-12-08T14:10:18.226Z,24.23
2022-12-08T14:12:46.739Z,20.55
2022-12-08T14:15:14.008Z,21.27
2022-12-08T14:17:40.739Z,21.23
2022-12-08T14:20:24.449Z,24.67
2022-12-08T14:22:51.333Z,25.52
2022-12-08T14:25:18.397Z,27.63
2022-12-08T14:27:45.074Z,28.08
2022-12-08T14:30:37.044Z,29.00
2022-12-08T14:33:04.113Z,26.60
2022-12-08T14:35:32.723Z,23.70
2022-12-08T14:38:01.112Z,30.80
2022-12-08T14:40:37.469Z,30.35
2022-12-08T14:45:50.676Z,37.28
2022-12-08T14:48:37.829Z,31.00
2022-12-08T14:51:24.126Z,30.42
2022-12-08T14:54:01.118Z,25.50
2022-12-08T14:56:39.557Z,24.38
2022-12-08T14:59:15.921Z,29.15
2022-12-08T15:01:42.924Z,19.30
2022-12-08T15:07:00.031Z,30.55
2022-12-08T15:09:48.549Z,22.95
2022-12-08T15:14:57.327Z,28.10
2022-12-08T15:17:46.083Z,27.02
2022-12-08T15:20:46.838Z,24.92
2022-12-08T15:23:27.751Z,24.10
2022-12-08T15:25:55.312Z,25.55
2022-12-08T15:28:28.137Z,23.67
2022-12-08T15:30:56.473Z,31.83
2022-12-08T15:33:23.092Z,28.23
2022-12-08T15:35:49.852Z,29.83
2022-12-08T15:38:20.366Z,30.08
2022-12-08T15:40:47.002Z,27.60
2022-12-08T15:43:13.779Z,24.23
2022-12-08T15:45:46.813Z,26.75
2022-12-08T15:48:22.817Z,26.55
2022-12-08T15:50:49.723Z,25.55
2022-12-08T15:53:16.724Z,29.58
2022-12-08T15:56:03.466Z,26.48
2022-12-08T15:58:52.958Z,28.85
2022-12-08T16:01:17.519Z,28.08
2022-12-08T16:07:12.780Z,26.80
2022-12-08T16:09:23.618Z,24.88
2022-12-08T16:17:24.193Z,30.42
2022-12-08T16:19:51.149Z,28.73
2022-12-08T16:25:18.216Z,26.98
2022-12-08T16:28:12.898Z,28.80
2022-12-08T16:30:33.266Z,23.30
2022-12-08T16:32:59.954Z,27.17
2022-12-08T16:35:26.601Z,30.95
2022-12-08T16:37:53.201Z,24.48
2022-12-08T16:40:19.912Z,27.50
2022-12-08T16:42:48.387Z,30.08
2022-12-08T16:45:18.175Z,24.00
2022-12-08T16:47:47.109Z,26.25
2022-12-08T16:50:16.933Z,26.50
2022-12-08T16:52:43.842Z,30.90
2022-12-08T16:55:14.270Z,27.40
2022-12-08T16:57:41.004Z,23.35
2022-12-08T17:00:09.626Z,29.48
2022-12-08T17:02:36.305Z,30.75
2022-12-08T17:05:03.251Z,33.45
2022-12-08T17:07:29.959Z,28.45
2022-12-08T17:09:56.815Z,24.90
2022-12-08T17:12:23.502Z,26.45
2022-12-08T17:14:50.182Z,31.02
2022-12-08T17:17:16.932Z,25.63
2022-12-08T17:19:43.866Z,32.22
2022-12-08T17:22:10.439Z,28.20
2022-12-08T17:24:37.481Z,29.77
2022-12-08T17:27:04.431Z,27.35
2022-12-08T17:29:31.735Z,25.23
2022-12-08T17:31:58.600Z,43.55
2022-12-08T17:34:25.218Z,27.65
2022-12-08T17:36:55.196Z,32.10
2022-12-08T17:39:21.847Z,32.72
2022-12-08T17:41:48.454Z,27.88
2022-12-08T17:44:16.959Z,33.08
2022-12-08T17:46:49.070Z,27.88
2022-12-08T17:49:22.120Z,33.45
2022-12-08T17:51:49.593Z,31.10
2022-12-08T17:54:16.936Z,30.83
2022-12-08T17:56:43.866Z,27.48
2022-12-08T17:59:11.176Z,34.05
2022-12-08T18:01:38.482Z,39.97
2022-12-08T18:04:05.890Z,30.48
2022-12-08T18:06:32.560Z,29.77
2022-12-08T18:08:59.532Z,23.33
2022-12-08T18:11:26.412Z,28.55
2022-12-08T18:13:53.087Z,29.17
2022-12-08T18:16:21.855Z,32.25
2022-12-08T18:18:48.617Z,28.38
2022-12-08T18:21:22.853Z,34.35
2022-12-08T18:23:50.264Z,37.22
2022-12-08T18:26:16.971Z,41.38
2022-12-08T18:28:43.722Z,36.20
2022-12-08T18:31:12.211Z,34.83
2022-12-08T18:33:39.727Z,32.10
2022-12-08T18:36:08.730Z,34.67
2022-12-08T18:38:35.353Z,29.17
2022-12-08T18:41:06.873Z,29.77
2022-12-08T18:43:33.543Z,33.83
2022-12-08T18:46:02.750Z,35.08
2022-12-08T18:48:29.484Z,35.97
2022-12-08T18:50:56.212Z,33.05
2022-12-08T18:53:22.917Z,31.98
2022-12-08T18:55:50.904Z,33.10
2022-12-08T18:58:18.190Z,27.15
2022-12-08T19:00:44.850Z,34.15
2022-12-08T19:03:11.486Z,30.25
2022-12-08T19:05:38.452Z,31.23
2022-12-08T19:08:05.206Z,30.20
2022-12-08T19:10:32.200Z,30.67
2022-12-08T19:12:58.941Z,25.58
2022-12-08T19:15:25.668Z,25.95
2022-12-08T19:17:52.256Z,24.30
2022-12-08T19:20:18.893Z,24.60
2022-12-08T19:22:45.661Z,25.48
2022-12-08T19:25:12.471Z,33.03
2022-12-08T19:27:39.079Z,30.50
2022-12-08T19:30:06.528Z,24.88
2022-12-08T19:32:33.948Z,30.15
2022-12-08T19:35:00.929Z,31.27
2022-12-08T19:37:27.624Z,34.53
2022-12-08T19:40:14.220Z,31.25
2022-12-08T19:43:00.797Z,38.67
2022-12-08T19:45:27.693Z,37.10
2022-12-08T19:47:54.496Z,33.25
2022-12-08T19:50:36.188Z,29.40
2022-12-08T19:53:04.879Z,34.97
2022-12-08T19:55:31.534Z,33.53
2022-12-08T19:57:58.387Z,31.83
2022-12-08T20:00:25.029Z,34.53
2022-12-08T20:02:51.827Z,41.20
2022-12-08T20:05:18.640Z,44.08
2022-12-08T20:07:45.252Z,46.80
2022-12-08T20:10:19.217Z,39.20
2022-12-08T20:12:45.818Z,41.42
2022-12-08T20:15:12.544Z,36.72
2022-12-08T20:17:39.308Z,37.80
2022-12-08T20:20:07.570Z,39.08
2022-12-08T20:22:35.109Z,41.53
2022-12-08T20:25:02.178Z,47.97
2022-12-08T20:27:29.105Z,39.25
2022-12-08T20:29:55.920Z,43.42
2022-12-08T20:32:22.780Z,44.42
2022-12-08T20:34:49.412Z,41.08
2022-12-08T20:37:16.128Z,41.95
2022-12-08T20:39:42.887Z,47.47
2022-12-08T20:42:12.574Z,43.50
2022-12-08T20:44:43.215Z,40.35
2022-12-08T20:47:10.979Z,44.30
2022-12-08T20:49:38.137Z,41.92
2022-12-08T20:52:04.978Z,43.58
2022-12-08T20:54:31.688Z,41.67
2022-12-08T20:56:58.507Z,45.97
2022-12-08T20:59:26.375Z,39.75
2022-12-08T21:01:53.470Z,41.05
2022-12-08T21:04:20.674Z,39.15
2022-12-08T21:06:47.551Z,44.30
2022-12-08T21:09:14.410Z,46.13
2022-12-08T21:11:41.277Z,44.78
2022-12-08T21:14:08.015Z,38.70
2022-12-08T21:16:34.764Z,41.28
2022-12-08T21:19:01.473Z,46.22
2022-12-08T21:21:28.280Z,46.80
2022-12-08T21:23:55.083Z,36.50
2022-12-08T21:26:23.271Z,42.58
2022-12-08T21:28:50.078Z,48.63
2022-12-08T21:31:17.658Z,43.63
2022-12-08T21:33:44.782Z,38.67
2022-12-08T21:36:13.803Z,39.15
2022-12-08T21:38:40.831Z,38.58
2022-12-08T21:41:09.804Z,33.78
2022-12-08T21:43:36.672Z,35.80
2022-12-08T21:46:03.400Z,37.40
2022-12-08T21:48:30.155Z,39.05
2022-12-08T21:50:57.120Z,41.45
2022-12-08T21:53:26.472Z,36.25
2022-12-08T21:55:53.246Z,37.85
2022-12-08T21:58:20.087Z,40.95
2022-12-08T22:00:47.034Z,39.22
2022-12-08T22:03:14.391Z,45.30
2022-12-08T22:05:42.133Z,36.92
2022-12-08T22:08:09.076Z,47.33
2022-12-08T22:10:35.991Z,38.00
2022-12-08T22:13:02.686Z,44.45
2022-12-08T22:15:29.871Z,42.53
2022-12-08T22:17:56.943Z,42.05
2022-12-08T22:20:23.783Z,39.67
2022-12-08T22:22:50.442Z,39.55
2022-12-08T22:25:17.296Z,50.30
2022-12-08T22:27:44.025Z,41.55
2022-12-08T22:30:12.052Z,39.72
2022-12-08T22:32:39.255Z,38.75
2022-12-08T22:35:06.551Z,37.00
2022-12-08T22:37:33.245Z,35.20
2022-12-08T22:40:00.003Z,40.55
2022-12-08T22:42:27.200Z,40.63
2022-12-08T22:44:53.791Z,41.22
2022-12-08T22:47:20.402Z,36.65
2022-12-08T22:49:47.017Z,40.33
2022-12-08T22:52:13.595Z,40.05
2022-12-08T22:54:40.218Z,36.22
2022-12-08T22:57:06.961Z,48.35
2022-12-08T22:59:34.583Z,36.53
2022-12-08T23:02:01.303Z,40.90
2022-12-08T23:04:28.198Z,37.50
2022-12-08T23:06:55.170Z,38.03
2022-12-08T23:09:21.887Z,37.83
2022-12-08T23:11:48.557Z,41.97
2022-12-08T23:14:15.383Z,34.50
2022-12-08T23:16:42.193Z,40.75
2022-12-08T23:19:09.544Z,35.17
2022-12-08T23:21:36.206Z,35.03
2022-12-08T23:24:03.094Z,37.60
2022-12-08T23:26:31.638Z,36.15
2022-12-08T23:28:58.445Z,34.47
2022-12-08T23:31:25.637Z,40.67
2022-12-08T23:33:52.505Z,34.80
2022-12-08T23:36:19.670Z,40.78
2022-12-08T23:38:46.657Z,27.70
2022-12-08T23:41:14.299Z,30.60
2022-12-08T23:43:45.594Z,29.55
2022-12-08T23:46:12.517Z,34.08
2022-12-08T23:48:39.246Z,35.28
2022-12-08T23:51:06.119Z,33.35
2022-12-08T23:53:33.166Z,34.20
2022-12-08T23:56:01.795Z,46.03
2022-12-08T23:58:30.384Z,49.08
